aviador You're here:

KPNE Decoded Metar

PHILADELPHIA in PA, USA
Report Time2017-07-24 15:54:00
UTC Time2017-07-24 16:33:20
Flight Rules mvfr MVFR
Wind350° at 10 Gusting to 20 kt
W.Decomp.*RWY 33: 8.5 kt HW 5.3 kt RCW
RWY 06: 5.3 kt HW 8.5 kt LCW
W.Rank350° ranks 17
Current wind is above 350° avg. (8.4)
Visibility9999 m
Phenomena:N/A
Clouds:Scattered 018 Hf
Overcast 026 Hf
Expected CloudBase > 2,000 ft AGL from Temp-Dew spread
Ceiling2,600 ft
Temp26°C (ISA +11)
Dew Point21°C (74% RH)
QNH1009 hPa
Density Alt1,847 ft
Elevation92 ft
Report Wrong Elevation
Raw Report
KPNE 241554Z 35010G20KT 10SM SCT018 OVC026 26/21 A2980 RMK AO2
WSHFT 1441 SLP090 T02610211=

Extra information for KPNE:More info

Metar Taf Metar & Taf Last 4 Metars F.Rules Stats Wind Profile Meteogram Temp Stats Airport Information Weather charts Add Link Nearby VenuesMetar ALERT Operation Metar Decoded Social comments

AIRNAV info for KPNE